createdAt,value
2019-06-07T00:00:04.483Z,22.10
2019-06-07T00:01:11.213Z,22.00
2019-06-07T00:02:16.501Z,22.10
2019-06-07T00:03:28.932Z,22.00
2019-06-07T00:04:26.927Z,22.00
2019-06-07T00:05:31.080Z,22.00
2019-06-07T00:06:35.780Z,22.00
2019-06-07T00:07:39.852Z,22.00
2019-06-07T00:08:44.516Z,21.90
2019-06-07T00:09:48.690Z,21.90
2019-06-07T00:10:53.333Z,21.90
2019-06-07T00:11:57.392Z,21.90
2019-06-07T00:13:02.438Z,21.90
2019-06-07T00:14:08.465Z,21.80
2019-06-07T00:15:19.987Z,21.80
2019-06-07T00:16:22.867Z,21.80
2019-06-07T00:17:25.356Z,21.80
2019-06-07T00:18:29.487Z,21.70
2019-06-07T00:19:34.149Z,21.70
2019-06-07T00:20:38.283Z,21.70
2019-06-07T00:22:50.276Z,21.60
2019-06-07T00:23:54.907Z,21.60
2019-06-07T00:24:58.972Z,21.60
2019-06-07T00:26:03.640Z,21.60
2019-06-07T00:27:08.394Z,21.60
2019-06-07T00:28:13.941Z,21.50
2019-06-07T00:29:21.494Z,21.50
2019-06-07T00:30:50.150Z,21.50
2019-06-07T00:31:31.632Z,21.50
2019-06-07T00:32:36.290Z,21.40
2019-06-07T00:33:40.452Z,21.40
2019-06-07T00:34:45.105Z,21.40
2019-06-07T00:35:49.242Z,21.40
2019-06-07T00:36:53.888Z,21.40
2019-06-07T00:37:57.961Z,21.40
2019-06-07T00:39:02.650Z,21.30
2019-06-07T00:40:17.342Z,21.30
2019-06-07T00:41:15.114Z,21.30
2019-06-07T00:42:23.319Z,21.30
2019-06-07T00:43:28.437Z,21.30
2019-06-07T00:44:31.569Z,21.30
2019-06-07T00:45:36.482Z,21.20
2019-06-07T00:46:40.593Z,21.20
2019-06-07T00:47:45.230Z,21.20
2019-06-07T00:48:49.357Z,21.20
2019-06-07T00:49:54.121Z,21.20
2019-06-07T00:50:58.493Z,21.20
2019-06-07T00:52:03.139Z,21.10
2019-06-07T00:53:18.237Z,21.10
2019-06-07T00:54:15.733Z,21.10
2019-06-07T00:55:20.644Z,21.10
2019-06-07T00:56:25.812Z,21.10
2019-06-07T00:57:29.901Z,21.10
2019-06-07T00:58:34.785Z,21.10
2019-06-07T00:59:38.934Z,21.00
2019-06-07T01:00:43.815Z,21.00
2019-06-07T01:01:47.854Z,21.00
2019-06-07T01:02:52.526Z,21.00
2019-06-07T01:03:56.688Z,21.00
2019-06-07T01:05:01.335Z,21.00
2019-06-07T01:06:05.826Z,20.90
2019-06-07T01:07:10.577Z,20.90
2019-06-07T01:08:16.166Z,20.90
2019-06-07T01:09:23.900Z,20.90
2019-06-07T01:10:51.643Z,20.90
2019-06-07T01:11:32.924Z,20.90
2019-06-07T01:12:37.000Z,20.80
2019-06-07T01:13:41.639Z,20.90
2019-06-07T01:14:45.771Z,20.80
2019-06-07T01:15:50.658Z,20.80
2019-06-07T01:16:59.502Z,20.80
2019-06-07T01:18:33.587Z,20.80
2019-06-07T01:19:06.823Z,20.80
2019-06-07T01:20:12.169Z,20.70
2019-06-07T01:21:20.631Z,20.70
2019-06-07T01:22:23.495Z,20.70
2019-06-07T01:24:04.764Z,20.70
2019-06-07T01:24:34.558Z,20.70
2019-06-07T01:25:38.665Z,20.70
2019-06-07T01:26:43.374Z,20.60
2019-06-07T01:27:47.547Z,20.60
2019-06-07T01:28:52.205Z,20.60
2019-06-07T01:29:56.269Z,20.60
2019-06-07T01:31:00.923Z,20.60
2019-06-07T01:32:05.133Z,20.60
2019-06-07T01:33:09.830Z,20.60
2019-06-07T01:34:13.915Z,20.60
2019-06-07T01:35:20.584Z,20.50
2019-06-07T01:36:28.893Z,20.50
2019-06-07T01:37:30.640Z,20.50
2019-06-07T01:38:34.731Z,20.50
2019-06-07T01:39:39.415Z,20.50
2019-06-07T01:40:43.647Z,20.50
2019-06-07T01:41:48.286Z,20.40
2019-06-07T01:42:52.354Z,20.50
2019-06-07T01:43:58.954Z,20.40
2019-06-07T01:45:03.968Z,20.40
2019-06-07T01:46:08.815Z,20.40
2019-06-07T01:47:13.019Z,20.40
2019-06-07T01:48:23.126Z,20.30
2019-06-07T01:49:28.114Z,20.30
2019-06-07T01:50:32.477Z,20.30
2019-06-07T01:51:36.601Z,20.30
2019-06-07T01:52:41.260Z,20.30
2019-06-07T01:53:45.337Z,20.30
2019-06-07T01:54:58.025Z,20.30
2019-06-07T01:55:55.720Z,20.30
2019-06-07T01:57:00.454Z,20.30
2019-06-07T01:58:04.628Z,20.20
2019-06-07T01:59:09.267Z,20.20
2019-06-07T02:00:15.314Z,20.20
2019-06-07T02:01:21.672Z,20.20
2019-06-07T02:02:28.231Z,20.20
2019-06-07T02:03:33.091Z,20.20
2019-06-07T02:04:39.910Z,20.20
2019-06-07T02:05:44.629Z,20.10
2019-06-07T02:06:48.709Z,20.10
2019-06-07T02:07:53.521Z,20.10
2019-06-07T02:08:57.664Z,20.10
2019-06-07T02:10:02.315Z,20.10
2019-06-07T02:11:06.438Z,20.10
2019-06-07T02:12:25.635Z,20.10
2019-06-07T02:13:16.740Z,20.10
2019-06-07T02:14:23.651Z,20.10
2019-06-07T02:15:31.085Z,20.10
2019-06-07T02:16:34.951Z,20.00
2019-06-07T02:17:39.092Z,20.10
2019-06-07T02:19:01.101Z,20.00
2019-06-07T02:19:49.621Z,20.00
2019-06-07T02:20:54.266Z,20.00
2019-06-07T02:21:58.333Z,20.00
2019-06-07T02:23:02.978Z,20.00
2019-06-07T02:24:07.151Z,20.00
2019-06-07T02:26:17.708Z,19.90
2019-06-07T02:27:24.618Z,19.90
2019-06-07T02:28:42.682Z,19.90
2019-06-07T02:29:34.429Z,19.90
2019-06-07T02:30:49.275Z,19.90
2019-06-07T02:31:45.093Z,19.90
2019-06-07T02:32:49.124Z,19.90
2019-06-07T02:33:53.780Z,19.90
2019-06-07T02:34:57.881Z,19.90
2019-06-07T02:36:02.565Z,19.80
2019-06-07T02:37:06.664Z,19.80
2019-06-07T02:38:11.314Z,19.80
2019-06-07T02:39:16.673Z,19.80
2019-06-07T02:40:21.955Z,19.80
2019-06-07T02:41:31.055Z,19.80
2019-06-07T02:42:38.997Z,19.80
2019-06-07T02:43:38.170Z,19.80
2019-06-07T02:44:42.831Z,19.80
2019-06-07T02:45:47.057Z,19.70
2019-06-07T02:46:51.681Z,19.70
2019-06-07T02:47:55.829Z,19.70
2019-06-07T02:49:00.464Z,19.70
2019-06-07T02:50:10.073Z,19.70
2019-06-07T02:51:14.939Z,19.70
2019-06-07T02:52:18.973Z,19.70
2019-06-07T02:53:25.632Z,19.70
2019-06-07T02:54:31.082Z,19.70
2019-06-07T02:56:26.121Z,19.70
2019-06-07T02:56:56.865Z,19.70
2019-06-07T02:57:47.602Z,19.70
2019-06-07T02:58:51.745Z,19.70
2019-06-07T03:00:07.800Z,19.70
2019-06-07T03:01:08.505Z,19.70
2019-06-07T03:02:08.477Z,19.70
2019-06-07T03:03:14.286Z,19.70
2019-06-07T03:04:19.769Z,19.70
2019-06-07T03:05:25.117Z,19.70
2019-06-07T03:06:36.327Z,19.70
2019-06-07T03:07:40.223Z,19.60
2019-06-07T03:08:46.941Z,19.70
2019-06-07T03:09:51.861Z,19.60
2019-06-07T03:10:57.789Z,19.60
2019-06-07T03:12:03.989Z,19.60
2019-06-07T03:13:10.348Z,19.60
2019-06-07T03:14:17.150Z,19.60
2019-06-07T03:15:35.379Z,19.60
2019-06-07T03:16:39.961Z,19.60
2019-06-07T03:18:04.101Z,19.60
2019-06-07T03:19:12.511Z,19.60
2019-06-07T03:20:24.200Z,19.60
2019-06-07T03:21:31.448Z,19.60
2019-06-07T03:22:41.356Z,19.60
2019-06-07T03:23:45.190Z,19.60
2019-06-07T03:24:51.467Z,19.60
2019-06-07T03:25:55.783Z,19.60
2019-06-07T03:28:07.745Z,19.60
2019-06-07T03:29:12.469Z,19.60
2019-06-07T03:30:38.537Z,19.60
2019-06-07T03:31:24.030Z,19.60
2019-06-07T03:32:30.355Z,19.60
2019-06-07T03:33:41.539Z,19.60
2019-06-07T03:34:43.512Z,19.60
2019-06-07T03:35:46.445Z,19.60
2019-06-07T03:36:50.617Z,19.60
2019-06-07T03:37:55.266Z,19.60
2019-06-07T03:38:59.339Z,19.60
2019-06-07T03:40:05.240Z,19.60
2019-06-07T03:41:09.448Z,19.60
2019-06-07T03:42:14.166Z,19.60
2019-06-07T03:43:18.304Z,19.60
2019-06-07T03:44:23.003Z,19.60
2019-06-07T03:45:28.663Z,19.60
2019-06-07T03:46:35.166Z,19.60
2019-06-07T03:47:41.976Z,19.60
2019-06-07T03:48:45.312Z,19.60
2019-06-07T03:49:49.445Z,19.60
2019-06-07T03:51:04.285Z,19.60
2019-06-07T03:52:00.524Z,19.60
2019-06-07T03:53:05.367Z,19.60
2019-06-07T03:54:09.433Z,19.60
2019-06-07T03:55:14.217Z,19.60
2019-06-07T03:56:18.357Z,19.60
2019-06-07T03:57:23.005Z,19.60
2019-06-07T03:58:32.629Z,19.60
2019-06-07T03:59:37.585Z,19.60
2019-06-07T04:00:42.963Z,19.60
2019-06-07T04:01:45.497Z,19.60
2019-06-07T04:02:53.902Z,19.60
2019-06-07T04:03:58.669Z,19.60
2019-06-07T04:05:02.860Z,19.60
2019-06-07T04:06:07.523Z,19.60
2019-06-07T04:07:11.608Z,19.60
2019-06-07T04:08:16.269Z,19.60
2019-06-07T04:09:21.938Z,19.60
2019-06-07T04:10:44.707Z,19.60
2019-06-07T04:11:32.619Z,19.60
2019-06-07T04:12:41.339Z,19.60
2019-06-07T04:13:43.292Z,19.60
2019-06-07T04:14:48.044Z,19.60
2019-06-07T04:15:52.436Z,19.70
2019-06-07T04:16:57.051Z,19.60
2019-06-07T04:18:03.756Z,19.60
2019-06-07T04:19:09.056Z,19.60
2019-06-07T04:20:13.445Z,19.70
2019-06-07T04:21:18.116Z,19.70
2019-06-07T04:22:22.187Z,19.70
2019-06-07T04:23:29.961Z,19.70
2019-06-07T04:24:36.574Z,19.70
2019-06-07T04:25:42.257Z,19.70
2019-06-07T04:26:46.847Z,19.70
2019-06-07T04:27:51.148Z,19.70
2019-06-07T04:29:31.435Z,19.80
2019-06-07T04:30:07.328Z,19.80
2019-06-07T04:31:07.619Z,19.80
2019-06-07T04:32:12.470Z,19.80
2019-06-07T04:33:16.594Z,19.80
2019-06-07T04:34:21.311Z,19.80
2019-06-07T04:35:25.517Z,19.90
2019-06-07T04:36:45.573Z,19.90
2019-06-07T04:37:41.106Z,19.90
2019-06-07T04:38:45.575Z,19.90
2019-06-07T04:39:51.076Z,19.90
2019-06-07T04:40:56.114Z,19.90
2019-06-07T04:42:03.822Z,19.90
2019-06-07T04:43:08.613Z,20.00
2019-06-07T04:44:15.023Z,20.00
2019-06-07T04:45:33.623Z,20.00
2019-06-07T04:46:27.256Z,20.00
2019-06-07T04:47:36.690Z,20.00
2019-06-07T04:48:43.832Z,20.00
2019-06-07T04:49:50.466Z,20.00
2019-06-07T04:50:56.589Z,20.10
2019-06-07T04:52:02.362Z,20.10
2019-06-07T04:53:08.297Z,20.10
2019-06-07T04:54:12.995Z,20.10
2019-06-07T04:55:17.082Z,20.10
2019-06-07T04:56:21.745Z,20.10
2019-06-07T04:57:25.849Z,20.10
2019-06-07T04:58:31.476Z,20.10
2019-06-07T05:00:11.361Z,20.20
2019-06-07T05:00:53.988Z,20.20
2019-06-07T05:01:48.228Z,20.20
2019-06-07T05:02:52.937Z,20.20
2019-06-07T05:03:57.155Z,20.20
2019-06-07T05:05:01.818Z,20.20
2019-06-07T05:06:05.958Z,20.20
2019-06-07T05:07:10.657Z,20.20
2019-06-07T05:08:27.670Z,20.30
2019-06-07T05:09:21.119Z,20.30
2019-06-07T05:10:25.392Z,20.30
2019-06-07T05:11:31.638Z,20.30
2019-06-07T05:12:39.484Z,20.40
2019-06-07T05:13:44.021Z,20.30
2019-06-07T05:14:47.809Z,20.30
2019-06-07T05:15:52.546Z,20.40
2019-06-07T05:16:56.669Z,20.40
2019-06-07T05:18:01.399Z,20.40
2019-06-07T05:19:05.597Z,20.40
2019-06-07T05:20:10.415Z,20.50
2019-06-07T05:21:14.499Z,20.50
2019-06-07T05:22:19.162Z,20.50
2019-06-07T05:24:04.924Z,20.50
2019-06-07T05:24:37.680Z,20.60
2019-06-07T05:25:42.203Z,20.60
2019-06-07T05:26:44.656Z,20.60
2019-06-07T05:27:48.714Z,20.60
2019-06-07T05:28:53.452Z,20.60
2019-06-07T05:30:13.149Z,20.70
2019-06-07T05:31:05.744Z,20.70
2019-06-07T05:32:09.709Z,20.70
2019-06-07T05:33:17.003Z,20.80
2019-06-07T05:34:21.232Z,20.80
2019-06-07T05:35:26.436Z,20.80
2019-06-07T05:36:31.485Z,20.90
2019-06-07T05:37:38.227Z,20.90
2019-06-07T05:38:44.810Z,20.90
2019-06-07T05:39:48.733Z,20.90
2019-06-07T05:40:52.894Z,20.90
2019-06-07T05:41:57.729Z,21.00
2019-06-07T05:43:01.964Z,21.00
2019-06-07T05:44:12.515Z,21.00
2019-06-07T05:45:14.385Z,21.00
2019-06-07T05:46:19.037Z,21.10
2019-06-07T05:47:23.117Z,21.10
2019-06-07T05:48:27.888Z,21.10
2019-06-07T05:49:32.919Z,21.10
2019-06-07T05:50:46.273Z,21.10
2019-06-07T05:51:45.034Z,21.10
2019-06-07T05:52:49.949Z,21.20
2019-06-07T05:53:54.067Z,21.20
2019-06-07T05:54:58.724Z,21.20
2019-06-07T05:56:03.101Z,21.20
2019-06-07T05:57:07.985Z,21.20
2019-06-07T05:58:12.055Z,21.30
2019-06-07T05:59:16.717Z,21.30
2019-06-07T06:00:20.980Z,21.30
2019-06-07T06:01:43.103Z,21.30
2019-06-07T06:02:31.316Z,21.40
2019-06-07T06:03:38.132Z,21.40
2019-06-07T06:04:47.827Z,21.40
2019-06-07T06:05:54.588Z,21.40
2019-06-07T06:06:53.822Z,21.50
2019-06-07T06:07:58.695Z,21.50
2019-06-07T06:09:13.243Z,21.50
2019-06-07T06:10:10.917Z,21.50
2019-06-07T06:11:16.742Z,21.50
2019-06-07T06:12:34.887Z,21.50
2019-06-07T06:13:28.592Z,21.60
2019-06-07T06:14:35.206Z,21.60
2019-06-07T06:15:46.391Z,21.70
2019-06-07T06:16:47.964Z,21.70
2019-06-07T06:17:53.978Z,21.70
2019-06-07T06:18:57.290Z,21.70
2019-06-07T06:20:01.372Z,21.70
2019-06-07T06:21:18.720Z,21.80
2019-06-07T06:22:11.893Z,21.80
2019-06-07T06:23:16.560Z,21.80
2019-06-07T06:24:20.709Z,21.80
2019-06-07T06:25:34.105Z,21.90
2019-06-07T06:26:31.345Z,21.90
2019-06-07T06:28:45.375Z,21.90
2019-06-07T06:29:50.431Z,22.00
2019-06-07T06:30:55.423Z,22.00
2019-06-07T06:32:40.511Z,22.00
2019-06-07T06:33:05.958Z,22.00
2019-06-07T06:34:10.604Z,22.00
2019-06-07T06:35:15.832Z,22.10
2019-06-07T06:36:21.272Z,22.10
2019-06-07T06:37:25.939Z,22.10
2019-06-07T06:38:31.463Z,22.10
2019-06-07T06:39:35.585Z,22.10
2019-06-07T06:40:44.289Z,22.20
2019-06-07T06:41:57.520Z,22.20
2019-06-07T06:42:52.226Z,22.20
2019-06-07T06:43:56.816Z,22.20
2019-06-07T06:45:01.491Z,22.30
2019-06-07T06:46:05.742Z,22.30
2019-06-07T06:47:10.543Z,22.40
2019-06-07T06:48:14.664Z,22.40
2019-06-07T06:49:19.363Z,22.40
2019-06-07T06:50:23.571Z,22.50
2019-06-07T06:51:28.305Z,22.50
2019-06-07T06:52:32.443Z,22.50
2019-06-07T06:53:56.540Z,22.50
2019-06-07T06:55:01.316Z,22.50
2019-06-07T06:56:06.182Z,22.60
2019-06-07T06:57:19.615Z,22.60
2019-06-07T06:58:16.758Z,22.70
2019-06-07T06:59:38.148Z,22.60
2019-06-07T07:00:52.267Z,22.70
2019-06-07T07:01:52.319Z,22.70
2019-06-07T07:03:41.821Z,22.70
2019-06-07T07:04:12.202Z,22.70
2019-06-07T07:05:08.323Z,22.80
2019-06-07T07:06:25.853Z,22.80
2019-06-07T07:07:20.869Z,22.90
2019-06-07T07:08:25.220Z,22.90
2019-06-07T07:09:30.097Z,22.90
2019-06-07T07:10:52.082Z,22.90
2019-06-07T07:12:10.286Z,22.90
2019-06-07T07:12:59.486Z,23.00
2019-06-07T07:14:04.232Z,23.00
2019-06-07T07:15:10.220Z,23.00
2019-06-07T07:16:14.931Z,23.00
2019-06-07T07:17:19.173Z,23.00
2019-06-07T07:18:23.828Z,23.10
2019-06-07T07:19:27.902Z,23.10
2019-06-07T07:20:34.124Z,23.10
2019-06-07T07:21:38.174Z,23.20
2019-06-07T07:22:46.434Z,23.20
2019-06-07T07:24:18.697Z,23.20
2019-06-07T07:24:55.094Z,23.20
2019-06-07T07:26:00.083Z,23.20
2019-06-07T07:27:06.653Z,23.20
2019-06-07T07:28:11.080Z,23.30
2019-06-07T07:29:15.744Z,23.30
2019-06-07T07:30:36.688Z,23.30
2019-06-07T07:31:29.218Z,23.40
2019-06-07T07:32:33.382Z,23.40
2019-06-07T07:34:24.097Z,23.40
2019-06-07T07:34:46.043Z,23.50
2019-06-07T07:36:11.050Z,23.50
2019-06-07T07:36:59.662Z,23.50
2019-06-07T07:38:02.540Z,23.50
2019-06-07T07:39:09.009Z,23.50
2019-06-07T07:40:55.694Z,23.60
2019-06-07T07:41:19.602Z,23.60
2019-06-07T07:42:25.914Z,23.60
2019-06-07T07:43:34.715Z,23.60
2019-06-07T07:44:54.582Z,23.70
2019-06-07T07:46:01.364Z,23.70
2019-06-07T07:47:01.376Z,23.70
2019-06-07T07:48:15.576Z,23.70
2019-06-07T07:49:13.370Z,23.70
2019-06-07T07:50:17.571Z,23.80
2019-06-07T07:51:22.070Z,23.80
2019-06-07T07:52:26.192Z,23.80
2019-06-07T07:53:47.953Z,23.80
2019-06-07T07:54:40.419Z,23.90
2019-06-07T07:55:49.491Z,23.90
2019-06-07T07:56:52.292Z,23.90
2019-06-07T07:58:01.607Z,24.00
2019-06-07T07:59:04.622Z,24.00
2019-06-07T08:00:48.820Z,24.00
2019-06-07T08:01:15.660Z,24.00
2019-06-07T08:02:21.343Z,24.00
2019-06-07T08:03:25.412Z,24.10
2019-06-07T08:05:12.909Z,24.10
2019-06-07T08:05:42.943Z,24.10
2019-06-07T08:06:43.220Z,24.20
2019-06-07T08:07:49.934Z,24.20
2019-06-07T08:08:55.884Z,24.20
2019-06-07T08:10:03.009Z,24.20
2019-06-07T08:11:07.182Z,24.30
2019-06-07T08:12:11.280Z,24.30
2019-06-07T08:13:24.960Z,24.30
2019-06-07T08:14:21.713Z,24.40
2019-06-07T08:15:26.384Z,24.40
2019-06-07T08:16:31.130Z,24.40
2019-06-07T08:17:35.829Z,24.40
2019-06-07T08:18:39.929Z,24.50
2019-06-07T08:19:44.620Z,24.50
2019-06-07T08:21:08.705Z,24.50
2019-06-07T08:21:55.695Z,24.50
2019-06-07T08:23:01.380Z,24.60
2019-06-07T08:24:06.235Z,24.60
2019-06-07T08:25:14.147Z,24.60
2019-06-07T08:26:18.851Z,24.60
2019-06-07T08:27:26.660Z,24.70
2019-06-07T08:28:29.346Z,24.70
2019-06-07T08:29:45.136Z,24.80
2019-06-07T08:30:52.985Z,24.80
2019-06-07T08:31:48.234Z,24.80
2019-06-07T08:32:57.567Z,24.80
2019-06-07T08:34:00.679Z,24.80
2019-06-07T08:35:07.001Z,24.90
2019-06-07T08:36:20.226Z,24.90
2019-06-07T08:37:21.972Z,24.90
2019-06-07T08:38:33.943Z,24.90
2019-06-07T08:39:32.554Z,25.00
2019-06-07T08:40:38.243Z,25.00
2019-06-07T08:41:53.939Z,25.00
2019-06-07T08:43:10.249Z,25.00
2019-06-07T08:43:56.832Z,25.00
2019-06-07T08:45:03.637Z,25.10
2019-06-07T08:46:08.100Z,25.10
2019-06-07T08:47:20.493Z,25.10
2019-06-07T08:48:27.950Z,25.10
2019-06-07T08:49:24.523Z,25.10
2019-06-07T08:50:30.932Z,25.10
2019-06-07T08:51:35.144Z,25.20
2019-06-07T08:52:43.785Z,25.20
2019-06-07T08:54:02.690Z,25.20
2019-06-07T08:54:55.020Z,25.20
2019-06-07T08:56:08.927Z,25.20
2019-06-07T08:57:20.106Z,25.30
2019-06-07T08:58:14.973Z,25.20
2019-06-07T08:59:21.154Z,25.30
2019-06-07T09:00:45.562Z,25.30
2019-06-07T09:01:33.545Z,25.30
2019-06-07T09:02:37.808Z,25.30
2019-06-07T09:03:42.534Z,25.40
2019-06-07T09:04:46.662Z,25.30
2019-06-07T09:05:54.285Z,25.40
2019-06-07T09:07:08.928Z,25.40
2019-06-07T09:08:28.695Z,25.40
2019-06-07T09:09:10.385Z,25.40
2019-06-07T09:10:18.297Z,25.50
2019-06-07T09:11:22.378Z,25.50
2019-06-07T09:12:27.143Z,25.50
2019-06-07T09:13:31.284Z,25.50
2019-06-07T09:14:56.506Z,25.60
2019-06-07T09:15:41.694Z,25.60
2019-06-07T09:16:46.502Z,25.60
2019-06-07T09:18:59.037Z,25.60
2019-06-07T09:20:09.473Z,25.70
2019-06-07T09:21:11.012Z,25.70
2019-06-07T09:22:15.170Z,25.70
2019-06-07T09:23:22.832Z,25.70
2019-06-07T09:24:27.008Z,25.80
2019-06-07T09:25:31.679Z,25.80
2019-06-07T09:26:35.852Z,25.80
2019-06-07T09:27:40.668Z,25.80
2019-06-07T09:28:45.301Z,25.90
2019-06-07T09:29:50.102Z,25.90
2019-06-07T09:30:57.337Z,25.90
2019-06-07T09:32:09.653Z,25.90
2019-06-07T09:33:09.087Z,25.90
2019-06-07T09:34:15.414Z,26.00
2019-06-07T09:35:22.682Z,26.00
2019-06-07T09:36:27.484Z,26.00
2019-06-07T09:38:04.191Z,26.00
2019-06-07T09:38:38.067Z,26.00
2019-06-07T09:39:42.375Z,26.00
2019-06-07T09:40:47.047Z,26.00
2019-06-07T09:41:51.362Z,26.10
2019-06-07T09:43:48.851Z,26.10
2019-06-07T09:44:19.053Z,26.10
2019-06-07T09:45:13.922Z,26.10
2019-06-07T09:46:17.015Z,26.10
2019-06-07T09:47:31.779Z,26.10
2019-06-07T09:49:09.881Z,26.10
2019-06-07T09:49:33.984Z,26.20
2019-06-07T09:50:38.097Z,26.20
2019-06-07T09:51:42.872Z,26.20
2019-06-07T09:52:57.711Z,26.20
2019-06-07T09:53:53.225Z,26.30
2019-06-07T09:55:15.440Z,26.30
2019-06-07T09:56:08.765Z,26.40
2019-06-07T09:57:16.620Z,26.40
2019-06-07T09:58:50.155Z,26.40
2019-06-07T09:59:21.419Z,26.50
2019-06-07T10:00:42.841Z,26.50
2019-06-07T10:01:31.963Z,26.60
2019-06-07T10:02:36.568Z,26.60
2019-06-07T10:03:40.718Z,26.60
2019-06-07T10:04:46.729Z,26.70
2019-06-07T10:05:53.593Z,26.70
2019-06-07T10:07:03.240Z,26.70
2019-06-07T10:08:38.064Z,26.70
2019-06-07T10:10:09.214Z,26.70
2019-06-07T10:11:25.335Z,26.70
2019-06-07T10:12:29.451Z,26.80
2019-06-07T10:13:34.072Z,26.80
2019-06-07T10:14:38.142Z,26.80
2019-06-07T10:15:44.032Z,26.90
2019-06-07T10:16:50.483Z,26.90
2019-06-07T10:17:55.196Z,26.90
2019-06-07T10:18:59.286Z,26.90
2019-06-07T10:20:05.747Z,26.90
2019-06-07T10:21:14.719Z,26.90
2019-06-07T10:22:16.314Z,26.90
2019-06-07T10:23:20.459Z,26.90
2019-06-07T10:24:25.101Z,26.90
2019-06-07T10:25:29.168Z,26.90
2019-06-07T10:26:33.834Z,27.00
2019-06-07T10:27:39.033Z,27.00
2019-06-07T10:28:43.776Z,27.00
2019-06-07T10:29:47.826Z,27.00
2019-06-07T10:30:52.481Z,27.00
2019-06-07T10:31:56.865Z,27.00
2019-06-07T10:33:02.267Z,27.10
2019-06-07T10:34:08.358Z,27.10
2019-06-07T10:35:16.354Z,27.10
2019-06-07T10:36:19.295Z,27.10
2019-06-07T10:37:23.959Z,27.10
2019-06-07T10:38:28.067Z,27.20
2019-06-07T10:39:47.654Z,27.20
2019-06-07T10:40:38.463Z,27.20
2019-06-07T10:41:43.102Z,27.20
2019-06-07T10:42:47.174Z,27.20
2019-06-07T10:43:51.822Z,27.30
2019-06-07T10:44:56.014Z,27.20
2019-06-07T10:46:01.452Z,27.20
2019-06-07T10:47:08.001Z,27.20
2019-06-07T10:48:12.958Z,27.20
2019-06-07T10:49:17.087Z,27.20
2019-06-07T10:50:24.490Z,27.20
2019-06-07T10:51:28.599Z,27.20
2019-06-07T10:52:33.328Z,27.20
2019-06-07T10:53:37.386Z,27.20
2019-06-07T10:54:42.047Z,27.30
2019-06-07T10:55:46.137Z,27.30
2019-06-07T10:56:50.819Z,27.30
2019-06-07T10:57:54.873Z,27.40
2019-06-07T10:58:59.517Z,27.40
2019-06-07T11:00:05.329Z,27.40
2019-06-07T11:01:12.394Z,27.40
2019-06-07T11:02:15.803Z,27.40
2019-06-07T11:03:23.461Z,27.40
2019-06-07T11:04:27.530Z,27.40
2019-06-07T11:05:32.210Z,27.40
2019-06-07T11:06:36.347Z,27.30
2019-06-07T11:07:41.015Z,27.30
2019-06-07T11:08:45.128Z,27.30
2019-06-07T11:10:05.682Z,27.30
2019-06-07T11:10:55.453Z,27.20
2019-06-07T11:12:00.133Z,27.20
2019-06-07T11:13:04.497Z,27.20
2019-06-07T11:14:10.718Z,27.20
2019-06-07T11:15:15.144Z,27.20
2019-06-07T11:16:19.866Z,27.20
2019-06-07T11:17:23.950Z,27.30
2019-06-07T11:18:31.145Z,27.20
2019-06-07T11:19:34.579Z,27.30
2019-06-07T11:20:40.911Z,27.30
2019-06-07T11:21:45.108Z,27.30
2019-06-07T11:22:49.771Z,27.30
2019-06-07T11:23:53.889Z,27.40
2019-06-07T11:24:58.653Z,27.40
2019-06-07T11:26:02.811Z,27.40
2019-06-07T11:27:09.195Z,27.40
2019-06-07T11:28:14.683Z,27.40
2019-06-07T11:29:22.052Z,27.40
2019-06-07T11:30:25.554Z,27.40
2019-06-07T11:31:30.338Z,27.40
2019-06-07T11:32:35.662Z,27.40
2019-06-07T11:33:40.486Z,27.40
2019-06-07T13:35:00.697Z,29.10
2019-06-07T13:36:05.495Z,29.10
2019-06-07T13:37:09.648Z,29.20
2019-06-07T13:38:26.958Z,29.20
2019-06-07T13:39:31.113Z,29.20
2019-06-07T13:40:37.166Z,29.20
2019-06-07T13:41:43.445Z,29.20
2019-06-07T13:42:48.108Z,29.20
2019-06-07T13:43:52.202Z,29.20
2019-06-07T13:44:59.253Z,29.20
2019-06-07T13:46:04.305Z,29.20
2019-06-07T13:47:09.029Z,29.20
2019-06-07T13:48:15.228Z,29.20
2019-06-07T13:49:21.412Z,29.20
2019-06-07T13:50:26.070Z,29.10
2019-06-07T13:51:33.414Z,29.20
2019-06-07T13:52:40.086Z,29.20
2019-06-07T13:53:44.699Z,29.20
2019-06-07T13:54:48.867Z,29.10
2019-06-07T13:55:53.568Z,29.10
2019-06-07T13:57:02.287Z,29.00
2019-06-07T13:58:04.004Z,29.00
2019-06-07T13:59:08.052Z,28.90
2019-06-07T14:00:13.558Z,28.90
2019-06-07T14:01:18.298Z,28.80
2019-06-07T14:02:23.982Z,28.80
2019-06-07T14:03:33.345Z,28.70
2019-06-07T14:04:35.301Z,28.60
2019-06-07T14:05:39.737Z,28.60
2019-06-07T14:06:44.428Z,28.50
2019-06-07T14:07:48.514Z,28.50
2019-06-07T14:08:54.755Z,28.50
2019-06-07T14:09:59.395Z,28.40
2019-06-07T14:11:06.142Z,28.40
2019-06-07T14:12:11.548Z,28.40
2019-06-07T14:13:16.208Z,28.50
2019-06-07T14:14:20.294Z,28.60
2019-06-07T14:15:26.363Z,28.80
2019-06-07T14:16:30.601Z,29.00
2019-06-07T14:17:35.304Z,29.30
2019-06-07T14:18:40.241Z,29.70
2019-06-07T14:19:44.928Z,30.10
2019-06-07T14:20:49.084Z,30.50
2019-06-07T14:21:54.210Z,31.00
2019-06-07T14:22:58.212Z,31.50
2019-06-07T14:24:04.308Z,32.10
2019-06-07T14:25:10.008Z,32.70
2019-06-07T14:26:14.705Z,33.30
2019-06-07T14:27:18.918Z,34.00
2019-06-07T14:28:26.766Z,34.60
2019-06-07T14:29:30.016Z,35.10
2019-06-07T14:30:35.163Z,35.70
2019-06-07T14:31:39.435Z,36.30
2019-06-07T14:32:44.078Z,36.80
2019-06-07T14:33:48.328Z,37.30
2019-06-07T14:34:53.100Z,37.80
2019-06-07T14:35:57.958Z,38.20
2019-06-07T14:37:02.757Z,38.60
2019-06-07T14:38:06.863Z,39.10
2019-06-07T14:39:12.653Z,39.40
2019-06-07T14:40:17.182Z,39.80
2019-06-07T14:41:23.126Z,40.10
2019-06-07T14:42:27.336Z,40.40
2019-06-07T14:43:32.056Z,40.70
2019-06-07T14:44:37.936Z,41.00
2019-06-07T14:45:43.764Z,41.20
2019-06-07T14:46:49.206Z,41.40
2019-06-07T14:47:53.867Z,41.60
2019-06-07T14:48:58.060Z,41.80
2019-06-07T14:50:04.084Z,41.80
2019-06-07T14:51:08.226Z,41.50
2019-06-07T14:52:13.746Z,41.10
2019-06-07T14:53:17.832Z,40.60
2019-06-07T14:54:22.483Z,40.10
2019-06-07T14:55:26.945Z,39.40
2019-06-07T14:56:33.118Z,38.90
2019-06-07T14:57:38.026Z,38.30
2019-06-07T14:58:43.563Z,37.70
2019-06-07T14:59:47.917Z,37.20
2019-06-07T15:00:52.693Z,36.90
2019-06-07T15:01:56.808Z,36.80
2019-06-07T15:03:01.533Z,37.00
2019-06-07T15:04:08.519Z,37.30
2019-06-07T15:05:14.657Z,37.70
2019-06-07T15:06:18.740Z,38.30
2019-06-07T15:07:24.596Z,38.60
2019-06-07T15:08:28.671Z,38.80
2019-06-07T15:09:33.313Z,38.80
2019-06-07T15:10:37.477Z,38.60
2019-06-07T15:11:42.421Z,38.40
2019-06-07T15:12:49.488Z,38.10
2019-06-07T15:13:54.308Z,37.80
2019-06-07T15:14:58.380Z,37.40
2019-06-07T15:16:03.188Z,37.00
2019-06-07T15:17:07.389Z,36.70
2019-06-07T15:18:12.185Z,36.30
2019-06-07T15:19:16.307Z,35.90
2019-06-07T15:20:21.123Z,35.60
2019-06-07T15:21:26.606Z,35.20
2019-06-07T15:22:32.107Z,35.00
2019-06-07T15:23:36.292Z,34.70
2019-06-07T15:24:40.998Z,34.40
2019-06-07T15:25:45.078Z,34.20
2019-06-07T15:26:49.746Z,33.90
2019-06-07T15:27:53.839Z,33.80
2019-06-07T15:28:58.578Z,33.50
2019-06-07T15:30:09.897Z,33.30
2019-06-07T15:31:09.051Z,33.10
2019-06-07T15:32:13.324Z,32.90
2019-06-07T15:33:18.092Z,32.80
2019-06-07T15:34:23.909Z,32.60
2019-06-07T15:35:32.632Z,32.40
2019-06-07T15:36:40.021Z,32.30
2019-06-07T15:37:45.062Z,32.20
2019-06-07T15:38:56.784Z,32.10
2019-06-07T15:40:03.195Z,32.00
2019-06-07T15:41:15.792Z,31.90
2019-06-07T15:42:23.103Z,31.80
2019-06-07T15:43:29.463Z,31.70
2019-06-07T15:44:37.426Z,31.50
2019-06-07T15:45:43.304Z,31.40
2019-06-07T15:46:48.089Z,31.30
2019-06-07T15:47:52.170Z,31.30
2019-06-07T15:48:56.878Z,31.10
2019-06-07T15:50:01.161Z,31.10
2019-06-07T15:51:05.885Z,30.90
2019-06-07T15:52:10.012Z,30.90
2019-06-07T15:53:17.521Z,30.80
2019-06-07T15:54:21.731Z,30.80
2019-06-07T15:55:26.578Z,30.70
2019-06-07T15:56:32.536Z,30.60
2019-06-07T15:57:37.495Z,30.60
2019-06-07T15:58:41.764Z,30.60
2019-06-07T15:59:46.574Z,30.50
2019-06-07T16:00:53.253Z,30.50
2019-06-07T16:01:58.531Z,30.50
2019-06-07T16:03:04.255Z,30.50
2019-06-07T16:04:09.546Z,30.40
2019-06-07T16:05:14.394Z,30.50
2019-06-07T16:06:20.659Z,30.40
2019-06-07T16:07:24.862Z,30.40
2019-06-07T16:08:32.298Z,30.40